nws-alerts: Checking more than four warning/county codes can delay the loading of your pages. You should use a cron job to get the data.
EllijayWeather Station Historical Data
Daily Summary for March 7, 2019 Units:  Metric    English   Both
Daily Weekly Monthly Yearly Custom
  High: Low: Average:
Temperature: 12.9 °C -6.1 °C 3.3 °C
Dew Point: -0.6 °C -14.6 °C -7.1 °C
Humidity: 90% 14% 54%
Wind Speed: 6.4km/h 0km/h 0.2km/h
Wind Gust: 9.7km/h - -
Wind- - SW
Pressure: 1032.1 hPa 1025.6 hPa -
Precipitation: 0 mm    
Historical Graphs
 
 
Tabular Data for March 7, 2019
Time Temperature Dew Point Pressure Wind Wind Speed Wind Gust Humidity Rainfall Rate (Hourly) solar
00:04 -3.8 °C -7.9 °C 1030 hPa Calm     73% 0 mm meteobridge W/m2
00:09 -3.9 °C -7.7 °C 1030 hPa Calm     75% 0 mm meteobridge W/m2
00:14 -3.9 °C -7.7 °C 1030 hPa Calm     75% 0 mm meteobridge W/m2
00:19 -4 °C -7.8 °C 1030 hPa Calm     75% 0 mm meteobridge W/m2
00:24 -4.1 °C -7.9 °C 1030 hPa Calm     75% 0 mm meteobridge W/m2
00:29 -4.1 °C -7.9 °C 1029.7 hPa Calm     75% 0 mm meteobridge W/m2
00:34 -4.1 °C -7.7 °C 1030 hPa Calm     76% 0 mm meteobridge W/m2
00:39 -4.2 °C -7.8 °C 1030 hPa Calm     76% 0 mm meteobridge W/m2
00:44 -4.2 °C -7.8 °C 1030 hPa Calm     76% 0 mm meteobridge W/m2
00:49 -4.3 °C -7.7 °C 1030 hPa Calm     77% 0 mm meteobridge W/m2
00:54 -4.3 °C -7.7 °C 1030 hPa Calm     77% 0 mm meteobridge W/m2
00:59 -4.4 °C -7.8 °C 1030 hPa Calm     77% 0 mm meteobridge W/m2
01:04 -4.4 °C -7.7 °C 1030 hPa Calm     78% 0 mm meteobridge W/m2
01:09 -4.4 °C -7.7 °C 1030.4 hPa Calm     78% 0 mm meteobridge W/m2
01:14 -4.4 °C -7.5 °C 1030.4 hPa Calm     79% 0 mm meteobridge W/m2
01:19 -4.5 °C -7.6 °C 1030.4 hPa Calm     79% 0 mm meteobridge W/m2
01:24 -4.6 °C -7.7 °C 1030.4 hPa Calm     79% 0 mm meteobridge W/m2
01:29 -4.6 °C -7.5 °C 1030.4 hPa Calm     80% 0 mm meteobridge W/m2
01:34 -4.6 °C -7.5 °C 1030.4 hPa Calm     80% 0 mm meteobridge W/m2
01:39 -4.7 °C -7.6 °C 1030.4 hPa Calm     80% 0 mm meteobridge W/m2
01:44 -4.7 °C -7.5 °C 1030.7 hPa Calm     81% 0 mm meteobridge W/m2
01:49 -4.8 °C -7.4 °C 1030.7 hPa Calm     82% 0 mm meteobridge W/m2
01:54 -4.8 °C -7.6 °C 1030.7 hPa Calm     81% 0 mm meteobridge W/m2
01:59 -4.8 °C -7.6 °C 1030.7 hPa Calm     81% 0 mm meteobridge W/m2
02:04 -4.9 °C -7.5 °C 1030.7 hPa Calm     82% 0 mm meteobridge W/m2
02:09 -4.9 °C -7.5 °C 1030.7 hPa Calm     82% 0 mm meteobridge W/m2
02:14 -4.9 °C -7.5 °C 1030.7 hPa Calm     82% 0 mm meteobridge W/m2
02:19 -4.9 °C -7.5 °C 1030.7 hPa Calm     82% 0 mm meteobridge W/m2
02:24 -5.1 °C -7.7 °C 1030.7 hPa Calm     82% 0 mm meteobridge W/m2
02:29 -5.1 °C -7.7 °C 1030.7 hPa Calm     82% 0 mm meteobridge W/m2
02:34 -5.1 °C -7.5 °C 1030.7 hPa Calm     83% 0 mm meteobridge W/m2
02:39 -5.1 °C -7.5 °C 1030.4 hPa Calm     83% 0 mm meteobridge W/m2
02:44 -5.1 °C -7.4 °C 1030.4 hPa Calm     84% 0 mm meteobridge W/m2
02:49 -5.2 °C -7.5 °C 1030.4 hPa Calm     84% 0 mm meteobridge W/m2
02:54 -5.2 °C -7.5 °C 1030.7 hPa Calm     84% 0 mm meteobridge W/m2
02:59 -5.1 °C -7.2 °C 1030.7 hPa Calm     85% 0 mm meteobridge W/m2
03:04 -5.2 °C -7.3 °C 1030.4 hPa Calm     85% 0 mm meteobridge W/m2
03:09 -5.2 °C -7.3 °C 1030.4 hPa Calm     85% 0 mm meteobridge W/m2
03:14 -5.2 °C -7.3 °C 1030.4 hPa Calm     85% 0 mm meteobridge W/m2
03:19 -5.2 °C -7.3 °C 1030.4 hPa Calm     85% 0 mm meteobridge W/m2
03:24 -5.3 °C -7.4 °C 1030.4 hPa Calm     85% 0 mm meteobridge W/m2
03:29 -5.3 °C -7.4 °C 1030 hPa Calm     85% 0 mm meteobridge W/m2
03:34 -5.3 °C -7.4 °C 1030 hPa Calm     85% 0 mm meteobridge W/m2
03:39 -5.4 °C -7.5 °C 1030.4 hPa Calm     85% 0 mm meteobridge W/m2
03:44 -5.4 °C -7.5 °C 1030.4 hPa Calm     85% 0 mm meteobridge W/m2
03:49 -5.4 °C -7.5 °C 1030.4 hPa Calm     85% 0 mm meteobridge W/m2
03:54 -5.4 °C -7.5 °C 1030.4 hPa Calm     85% 0 mm meteobridge W/m2
03:59 -5.4 °C -7.5 °C 1030.4 hPa Calm     85% 0 mm meteobridge W/m2
04:04 -5.4 °C -7.5 °C 1030.4 hPa Calm     85% 0 mm meteobridge W/m2
04:09 -5.5 °C -7.6 °C 1030.4 hPa Calm     85% 0 mm meteobridge W/m2
04:14 -5.5 °C -7.6 °C 1030.4 hPa Calm     85% 0 mm meteobridge W/m2
04:19 -5.6 °C -7.7 °C 1030.4 hPa Calm     85% 0 mm meteobridge W/m2
04:24 -5.6 °C -7.6 °C 1030.4 hPa Calm     86% 0 mm meteobridge W/m2
04:29 -5.6 °C -7.6 °C 1030.4 hPa Calm     86% 0 mm meteobridge W/m2
04:34 -5.6 °C -7.6 °C 1030.4 hPa Calm     86% 0 mm meteobridge W/m2
04:39 -5.6 °C -7.6 °C 1030.4 hPa Calm     86% 0 mm meteobridge W/m2
04:44 -5.7 °C -7.7 °C 1030.4 hPa Calm     86% 0 mm meteobridge W/m2
04:49 -5.7 °C -7.7 °C 1030.4 hPa Calm     86% 0 mm meteobridge W/m2
04:54 -5.7 °C -7.5 °C 1030.4 hPa Calm     87% 0 mm meteobridge W/m2
04:59 -5.7 °C -7.5 °C 1030.7 hPa Calm     87% 0 mm meteobridge W/m2
05:04 -5.7 °C -7.5 °C 1030.7 hPa Calm     87% 0 mm meteobridge W/m2
05:09 -5.7 °C -7.7 °C 1030.7 hPa Calm     86% 0 mm meteobridge W/m2
05:14 -5.7 °C -7.5 °C 1030.7 hPa Calm     87% 0 mm meteobridge W/m2
05:19 -5.7 °C -7.5 °C 1030.7 hPa Calm     87% 0 mm meteobridge W/m2
05:24 -5.7 °C -7.5 °C 1030.7 hPa Calm     87% 0 mm meteobridge W/m2
05:29 -5.7 °C -7.4 °C 1030.7 hPa Calm     88% 0 mm meteobridge W/m2
05:34 -5.7 °C -7.4 °C 1030.7 hPa Calm     88% 0 mm meteobridge W/m2
05:39 -5.7 °C -7.4 °C 1030.7 hPa Calm     88% 0 mm meteobridge W/m2
05:44 -5.8 °C -7.5 °C 1030.7 hPa Calm     88% 0 mm meteobridge W/m2
05:49 -5.8 °C -7.6 °C 1030.7 hPa Calm     87% 0 mm meteobridge W/m2
05:54 -5.8 °C -7.6 °C 1030.7 hPa Calm     87% 0 mm meteobridge W/m2
05:59 -5.8 °C -7.5 °C 1031 hPa Calm     88% 0 mm meteobridge W/m2
06:04 -5.9 °C -7.6 °C 1031 hPa Calm     88% 0 mm meteobridge W/m2
06:09 -5.9 °C -7.6 °C 1031 hPa Calm     88% 0 mm meteobridge W/m2
06:14 -5.9 °C -7.6 °C 1031 hPa Calm     88% 0 mm meteobridge W/m2
06:19 -5.9 °C -7.6 °C 1031 hPa Calm     88% 0 mm meteobridge W/m2
06:24 -5.9 °C -7.6 °C 1031.4 hPa Calm     88% 0 mm meteobridge W/m2
06:29 -5.9 °C -7.6 °C 1031.4 hPa Calm     88% 0 mm meteobridge W/m2
06:34 -5.9 °C -7.4 °C 1031.4 hPa Calm     89% 0 mm meteobridge W/m2
06:39 -5.9 °C -7.4 °C 1031.4 hPa Calm     89% 0 mm meteobridge W/m2
06:44 -6 °C -7.5 °C 1031.4 hPa Calm     89% 0 mm meteobridge W/m2
06:49 -6.1 °C -7.6 °C 1031.4 hPa Calm     89% 0 mm meteobridge W/m2
06:54 -6.1 °C -7.6 °C 1031.4 hPa Calm     89% 0 mm meteobridge W/m2
06:59 -6 °C -7.5 °C 1031.4 hPa Calm     89% 0 mm meteobridge W/m2
07:04 -6 °C -7.4 °C 1031.4 hPa Calm     90% 0 mm meteobridge W/m2
07:09 -6 °C -7.4 °C 1031.4 hPa Calm     90% 0 mm meteobridge W/m2
07:14 -6 °C -7.4 °C 1031.4 hPa Calm     90% 0 mm meteobridge W/m2
07:19 -5.9 °C -7.3 °C 1031.4 hPa Calm     90% 0 mm meteobridge W/m2
07:24 -5.9 °C -7.3 °C 1031.4 hPa Calm     90% 0 mm meteobridge W/m2
07:29 -5.8 °C -7.2 °C 1031.4 hPa Calm     90% 0 mm meteobridge W/m2
07:34 -5.8 °C -7.2 °C 1031.4 hPa Calm     90% 0 mm meteobridge W/m2
07:39 -5.8 °C -7.2 °C 1031.7 hPa Calm     90% 0 mm meteobridge W/m2
07:44 -5.8 °C -7.2 °C 1031.7 hPa Calm     90% 0 mm meteobridge W/m2
07:49 -5.7 °C -7.1 °C 1031.7 hPa Calm     90% 0 mm meteobridge W/m2
07:54 -5.5 °C -6.9 °C 1031.7 hPa Calm     90% 0 mm meteobridge W/m2
07:59 -5.4 °C -6.8 °C 1031.7 hPa Calm     90% 0 mm meteobridge W/m2
08:04 -5.2 °C -6.6 °C 1032.1 hPa Calm     90% 0 mm meteobridge W/m2
08:09 -5 °C -6.5 °C 1031.7 hPa Calm     89% 0 mm meteobridge W/m2
08:14 -4.8 °C -6.5 °C 1032.1 hPa Calm     88% 0 mm meteobridge W/m2
08:19 -4.4 °C -6.1 °C 1032.1 hPa Calm     88% 0 mm meteobridge W/m2
08:24 -4.2 °C -5.9 °C 1032.1 hPa Calm     88% 0 mm meteobridge W/m2
08:29 -3.9 °C -5.9 °C 1032.1 hPa Calm     86% 0 mm meteobridge W/m2
08:34 -3.5 °C -5.8 °C 1032.1 hPa Calm     84% 0 mm meteobridge W/m2
08:39 -3.1 °C -5.7 °C 1032.1 hPa NE 1.4 km/h 1.6 km/h 82% 0 mm meteobridge W/m2
08:44 -2.7 °C -6 °C 1032.1 hPa Calm     78% 0 mm meteobridge W/m2
08:49 -2.3 °C -6.1 °C 1032.1 hPa Calm     75% 0 mm meteobridge W/m2
08:54 -1.8 °C -5.6 °C 1032.1 hPa Calm     75% 0 mm meteobridge W/m2
08:59 -1.4 °C -6.2 °C 1032.1 hPa Calm   1.6 km/h 70% 0 mm meteobridge W/m2
09:04 -1.1 °C -7.2 °C 1032.1 hPa Calm   1.6 km/h 63% 0 mm meteobridge W/m2
09:09 -0.6 °C -6.6 °C 1032.1 hPa Calm     64% 0 mm meteobridge W/m2
09:14 -0.2 °C -6.6 °C 1032.1 hPa Calm     62% 0 mm meteobridge W/m2
09:19 0.2 °C -6.7 °C 1032.1 hPa Calm     60% 0 mm meteobridge W/m2
09:24 0.6 °C -6.1 °C 1031.7 hPa Calm     61% 0 mm meteobridge W/m2
09:29 1.1 °C -8.2 °C 1032.1 hPa Calm     50% 0 mm meteobridge W/m2
09:34 1.4 °C -8.4 °C 1031.7 hPa Calm     48% 0 mm meteobridge W/m2
09:39 1.8 °C -8.6 °C 1031.7 hPa NNW 3.2 km/h 3.2 km/h 46% 0 mm meteobridge W/m2
09:44 2.4 °C -7.5 °C 1031.7 hPa Calm     48% 0 mm meteobridge W/m2
09:49 2.9 °C -8.8 °C 1031.7 hPa Calm   4.8 km/h 42% 0 mm meteobridge W/m2
09:54 3.4 °C -8.6 °C 1031.7 hPa Calm   3.2 km/h 41% 0 mm meteobridge W/m2
09:59 3.8 °C -8.9 °C 1031.7 hPa Calm   3.2 km/h 39% 0 mm meteobridge W/m2
10:04 4.2 °C -9.6 °C 1031.4 hPa NW 1.4 km/h 3.2 km/h 36% 0 mm meteobridge W/m2
10:09 4.6 °C -9.9 °C 1031.4 hPa Calm   4.8 km/h 34% 0 mm meteobridge W/m2
10:14 5.1 °C -7.4 °C 1031 hPa Calm     40% 0 mm meteobridge W/m2
10:19 5.8 °C -8.5 °C 1031 hPa Calm   1.6 km/h 35% 0 mm meteobridge W/m2
10:24 5.9 °C -9.2 °C 1031 hPa Calm     33% 0 mm meteobridge W/m2
10:29 5.9 °C -9.5 °C 1031 hPa Calm     32% 0 mm meteobridge W/m2
10:34 6.1 °C -8.6 °C 1031 hPa NE 1.4 km/h 1.6 km/h 34% 0 mm meteobridge W/m2
10:39 6.4 °C -9.9 °C 1031 hPa Calm   4.8 km/h 30% 0 mm meteobridge W/m2
10:44 6.3 °C -10.4 °C 1031 hPa NW 1.4 km/h 6.4 km/h 29% 0 mm meteobridge W/m2
10:49 6.2 °C -10.5 °C 1031 hPa Calm     29% 0 mm meteobridge W/m2
10:54 6.4 °C -9.9 °C 1030.7 hPa Calm   1.6 km/h 30% 0 mm meteobridge W/m2
10:59 6.8 °C -10.5 °C 1030.7 hPa Calm   4.8 km/h 28% 0 mm meteobridge W/m2
11:04 7.1 °C -9.7 °C 1030.7 hPa Calm   1.6 km/h 29% 0 mm meteobridge W/m2
11:09 7.2 °C -10.1 °C 1030.7 hPa Calm     28% 0 mm meteobridge W/m2
11:14 7.2 °C -11 °C 1030.4 hPa Calm   3.2 km/h 26% 0 mm meteobridge W/m2
11:19 7.4 °C -9.5 °C 1030.4 hPa Calm     29% 0 mm meteobridge W/m2
11:24 7.7 °C -9.7 °C 1030.4 hPa Calm     28% 0 mm meteobridge W/m2
11:29 7.9 °C -10.4 °C 1030.4 hPa Calm   1.6 km/h 26% 0 mm meteobridge W/m2
11:34 8.1 °C -8.9 °C 1030.4 hPa Calm   1.6 km/h 29% 0 mm meteobridge W/m2
11:39 8.2 °C -10.2 °C 1030.4 hPa Calm   3.2 km/h 26% 0 mm meteobridge W/m2
11:44 8.3 °C -9.2 °C 1030.4 hPa Calm     28% 0 mm meteobridge W/m2
11:49 8.6 °C -9.4 °C 1030 hPa Calm   1.6 km/h 27% 0 mm meteobridge W/m2
11:54 9 °C -9 °C 1030 hPa Calm   1.6 km/h 27% 0 mm meteobridge W/m2
11:59 9.2 °C -10.3 °C 1030 hPa NW 3.2 km/h 6.4 km/h 24% 0 mm meteobridge W/m2
12:04 9.3 °C -10.8 °C 1030 hPa Calm   3.2 km/h 23% 0 mm meteobridge W/m2
12:09 9.4 °C -9.7 °C 1030 hPa Calm   3.2 km/h 25% 0 mm meteobridge W/m2
12:14 9.6 °C -11.7 °C 1029.7 hPa Calm   3.2 km/h 21% 0 mm meteobridge W/m2
12:19 9.8 °C -10.9 °C 1029.7 hPa NW 3.2 km/h 4.8 km/h 22% 0 mm meteobridge W/m2
12:24 9.9 °C -10.8 °C 1029.3 hPa Calm   1.6 km/h 22% 0 mm meteobridge W/m2
12:29 10.3 °C -11.1 °C 1029.3 hPa Calm   3.2 km/h 21% 0 mm meteobridge W/m2
12:34 10.5 °C -10.9 °C 1029.3 hPa Calm     21% 0 mm meteobridge W/m2
12:39 10.8 °C -10.1 °C 1029.3 hPa Calm   3.2 km/h 22% 0 mm meteobridge W/m2
12:44 10.9 °C -10 °C 1029.3 hPa Calm   1.6 km/h 22% 0 mm meteobridge W/m2
12:49 11 °C -10.5 °C 1029 hPa Calm   9.7 km/h 21% 0 mm meteobridge W/m2
12:54 11.2 °C -10.3 °C 1029 hPa Calm   1.6 km/h 21% 0 mm meteobridge W/m2
12:59 11.4 °C -8.5 °C 1029 hPa Calm   1.6 km/h 24% 0 mm meteobridge W/m2
13:04 11.6 °C -10.6 °C 1028.7 hPa Calm   8 km/h 20% 0 mm meteobridge W/m2
13:09 11.6 °C -11.9 °C 1028.7 hPa Calm   4.8 km/h 18% 0 mm meteobridge W/m2
13:14 11.5 °C -9.5 °C 1028.7 hPa NNW 1.4 km/h 3.2 km/h 22% 0 mm meteobridge W/m2
13:19 11.7 °C -9.3 °C 1028.3 hPa WNW 3.2 km/h 4.8 km/h 22% 0 mm meteobridge W/m2
13:24 11.8 °C -11.1 °C 1028.3 hPa Calm   4.8 km/h 19% 0 mm meteobridge W/m2
13:29 11.8 °C -11.1 °C 1028.3 hPa Calm   3.2 km/h 19% 0 mm meteobridge W/m2
13:34 11.9 °C -12.4 °C 1028.3 hPa Calm   6.4 km/h 17% 0 mm meteobridge W/m2
13:39 12 °C -13.1 °C 1028.3 hPa Calm   6.4 km/h 16% 0 mm meteobridge W/m2
13:44 12.1 °C -14.6 °C 1028.3 hPa NW 1.4 km/h 8 km/h 14% 0 mm meteobridge W/m2
13:49 12.1 °C -12.2 °C 1028 hPa Calm   3.2 km/h 17% 0 mm meteobridge W/m2
13:54 12.3 °C -10.7 °C 1028 hPa Calm   1.6 km/h 19% 0 mm meteobridge W/m2
13:59 12.6 °C -9.8 °C 1027.7 hPa NE 3.2 km/h 3.2 km/h 20% 0 mm meteobridge W/m2
14:04 12.7 °C -12.5 °C 1027.7 hPa Calm   1.6 km/h 16% 0 mm meteobridge W/m2
14:09 12.8 °C -11 °C 1027.7 hPa Calm     18% 0 mm meteobridge W/m2
14:14 12.8 °C -10.3 °C 1027.7 hPa Calm   3.2 km/h 19% 0 mm meteobridge W/m2
14:19 12.7 °C -11 °C 1027.3 hPa NW 4.7 km/h 4.8 km/h 18% 0 mm meteobridge W/m2
14:24 12.8 °C -9.6 °C 1027.3 hPa Calm   3.2 km/h 20% 0 mm meteobridge W/m2
14:29 12.9 °C -12.3 °C 1027 hPa Calm   1.6 km/h 16% 0 mm meteobridge W/m2
14:34 12.8 °C -11 °C 1026.6 hPa Calm   1.6 km/h 18% 0 mm meteobridge W/m2
14:39 12.7 °C -9.7 °C 1026.6 hPa Calm   1.6 km/h 20% 0 mm meteobridge W/m2
14:44 12.6 °C -9.8 °C 1026.6 hPa Calm     20% 0 mm meteobridge W/m2
14:49 12.6 °C -8.6 °C 1026.6 hPa SSE 6.4 km/h 6.4 km/h 22% 0 mm meteobridge W/m2
14:54 12.6 °C -7.5 °C 1026.6 hPa SSE 1.4 km/h 1.6 km/h 24% 0 mm meteobridge W/m2
14:59 12.5 °C -9.3 °C 1026.6 hPa SSE 1.4 km/h 3.2 km/h 21% 0 mm meteobridge W/m2
15:04 12.5 °C -10.5 °C 1026.6 hPa Calm     19% 0 mm meteobridge W/m2
15:09 12.5 °C -11.2 °C 1026.6 hPa Calm   1.6 km/h 18% 0 mm meteobridge W/m2
15:14 12.6 °C -10.4 °C 1026.3 hPa Calm     19% 0 mm meteobridge W/m2
15:19 12.6 °C -11.8 °C 1026.3 hPa Calm     17% 0 mm meteobridge W/m2
15:24 12.6 °C -11.8 °C 1026.6 hPa Calm     17% 0 mm meteobridge W/m2
15:29 12.5 °C -9.9 °C 1026.3 hPa Calm   1.6 km/h 20% 0 mm meteobridge W/m2
15:34 12.3 °C -10.7 °C 1026.3 hPa Calm   3.2 km/h 19% 0 mm meteobridge W/m2
15:39 12.3 °C -10.7 °C 1026 hPa Calm     19% 0 mm meteobridge W/m2
15:44 12.2 °C -8.9 °C 1026.3 hPa Calm     22% 0 mm meteobridge W/m2
15:49 12.2 °C -9.5 °C 1026.6 hPa Calm     21% 0 mm meteobridge W/m2
15:54 12.1 °C -9.6 °C 1026.6 hPa Calm   3.2 km/h 21% 0 mm meteobridge W/m2
15:59 12 °C -9.1 °C 1026.6 hPa Calm   1.6 km/h 22% 0 mm meteobridge W/m2
16:04 11.8 °C -9.8 °C 1026.6 hPa Calm   1.6 km/h 21% 0 mm meteobridge W/m2
16:09 11.8 °C -8.1 °C 1026.6 hPa Calm     24% 0 mm meteobridge W/m2
16:14 11.7 °C -8.2 °C 1026.6 hPa Calm   4.8 km/h 24% 0 mm meteobridge W/m2
16:19 11.5 °C -7.9 °C 1026.6 hPa Calm     25% 0 mm meteobridge W/m2
16:24 11.4 °C -7.4 °C 1026.6 hPa Calm     26% 0 mm meteobridge W/m2
16:29 11.3 °C -7 °C 1026.6 hPa Calm     27% 0 mm meteobridge W/m2
16:34 11.2 °C -7.6 °C 1026.6 hPa Calm   6.4 km/h 26% 0 mm meteobridge W/m2
16:39 11 °C -8.8 °C 1026.6 hPa Calm   1.6 km/h 24% 0 mm meteobridge W/m2
16:44 10.8 °C -8.5 °C 1027 hPa Calm     25% 0 mm meteobridge W/m2
16:49 10.8 °C -9 °C 1026.6 hPa Calm     24% 0 mm meteobridge W/m2
16:54 10.7 °C -8 °C 1026.6 hPa Calm     26% 0 mm meteobridge W/m2
16:59 10.6 °C -8.6 °C 1027 hPa Calm     25% 0 mm meteobridge W/m2
17:04 10.4 °C -6.4 °C 1027 hPa Calm   4.8 km/h 30% 0 mm meteobridge W/m2
17:09 10.3 °C -8.9 °C 1027 hPa Calm   1.6 km/h 25% 0 mm meteobridge W/m2
17:14 10.2 °C -8 °C 1027 hPa Calm   1.6 km/h 27% 0 mm meteobridge W/m2
17:19 10.1 °C -8.6 °C 1027 hPa Calm     26% 0 mm meteobridge W/m2
17:24 9.9 °C -7.3 °C 1027 hPa Calm     29% 0 mm meteobridge W/m2
17:29 9.9 °C -8.7 °C 1027 hPa Calm   1.6 km/h 26% 0 mm meteobridge W/m2
17:34 9.8 °C -7.9 °C 1027 hPa Calm     28% 0 mm meteobridge W/m2
17:39 9.8 °C -7 °C 1027 hPa Calm   3.2 km/h 30% 0 mm meteobridge W/m2
17:44 9.8 °C -6.5 °C 1027 hPa Calm     31% 0 mm meteobridge W/m2
17:49 9.7 °C -7.5 °C 1027 hPa Calm     29% 0 mm meteobridge W/m2
17:54 9.7 °C -7.1 °C 1027 hPa Calm     30% 0 mm meteobridge W/m2
17:59 9.6 °C -7.6 °C 1026.6 hPa Calm     29% 0 mm meteobridge W/m2
18:04 9.6 °C -7.1 °C 1026.6 hPa Calm     30% 0 mm meteobridge W/m2
18:09 9.6 °C -7.1 °C 1026.6 hPa Calm     30% 0 mm meteobridge W/m2
18:14 9.4 °C -8.2 °C 1026.6 hPa Calm     28% 0 mm meteobridge W/m2
18:19 9.4 °C -6.9 °C 1026.6 hPa Calm     31% 0 mm meteobridge W/m2
18:24 9.3 °C -7 °C 1026.6 hPa Calm     31% 0 mm meteobridge W/m2
18:29 9.2 °C -7.1 °C 1026.6 hPa Calm     31% 0 mm meteobridge W/m2
18:34 9.1 °C -7.2 °C 1026.6 hPa Calm     31% 0 mm meteobridge W/m2
18:39 8.9 °C -6.1 °C 1026.6 hPa Calm     34% 0 mm meteobridge W/m2
18:44 8.8 °C -6.2 °C 1026.6 hPa Calm     34% 0 mm meteobridge W/m2
18:49 8.7 °C -5.9 °C 1026.6 hPa Calm     35% 0 mm meteobridge W/m2
18:54 8.7 °C -5.5 °C 1026.6 hPa Calm     36% 0 mm meteobridge W/m2
18:59 8.5 °C -5.4 °C 1026.6 hPa Calm     37% 0 mm meteobridge W/m2
19:04 8.3 °C -5.5 °C 1026.3 hPa Calm     37% 0 mm meteobridge W/m2
19:09 8.3 °C -4.5 °C 1026.3 hPa Calm     40% 0 mm meteobridge W/m2
19:14 8.1 °C -5 °C 1026.3 hPa Calm     39% 0 mm meteobridge W/m2
19:19 7.9 °C -4.9 °C 1026.6 hPa Calm     40% 0 mm meteobridge W/m2
19:24 7.9 °C -4.5 °C 1026.3 hPa Calm     41% 0 mm meteobridge W/m2
19:29 7.8 °C -4.6 °C 1026.3 hPa Calm     41% 0 mm meteobridge W/m2
19:34 7.6 °C -4.2 °C 1026.6 hPa Calm     43% 0 mm meteobridge W/m2
19:39 7.5 °C -4.3 °C 1026.3 hPa Calm     43% 0 mm meteobridge W/m2
19:44 7.4 °C -3.8 °C 1026.3 hPa Calm     45% 0 mm meteobridge W/m2
19:49 7.3 °C -3.9 °C 1026.3 hPa Calm     45% 0 mm meteobridge W/m2
19:54 7.1 °C -3.5 °C 1026.3 hPa Calm     47% 0 mm meteobridge W/m2
19:59 7 °C -4.4 °C 1026.3 hPa Calm     44% 0 mm meteobridge W/m2
20:04 6.9 °C -4.5 °C 1026.3 hPa Calm     44% 0 mm meteobridge W/m2
20:09 6.8 °C -4.3 °C 1026.3 hPa Calm     45% 0 mm meteobridge W/m2
20:14 6.8 °C -4 °C 1026.6 hPa Calm     46% 0 mm meteobridge W/m2
20:19 6.8 °C -4 °C 1026.3 hPa Calm     46% 0 mm meteobridge W/m2
20:24 6.7 °C -3.8 °C 1026 hPa Calm     47% 0 mm meteobridge W/m2
20:29 6.6 °C -3.6 °C 1026.3 hPa Calm     48% 0 mm meteobridge W/m2
20:34 6.6 °C -2.6 °C 1026.3 hPa Calm     52% 0 mm meteobridge W/m2
20:39 6.4 °C -3.5 °C 1026 hPa Calm     49% 0 mm meteobridge W/m2
20:44 6.4 °C -3.5 °C 1026.3 hPa Calm     49% 0 mm meteobridge W/m2
20:49 6.4 °C -4.4 °C 1026.3 hPa Calm     46% 0 mm meteobridge W/m2
20:54 6.3 °C -4.2 °C 1026.6 hPa Calm     47% 0 mm meteobridge W/m2
20:59 6.3 °C -4.5 °C 1026.3 hPa Calm     46% 0 mm meteobridge W/m2
21:04 6.3 °C -3.6 °C 1026.3 hPa Calm     49% 0 mm meteobridge W/m2
21:09 6.3 °C -1.8 °C 1026.3 hPa Calm     56% 0 mm meteobridge W/m2
21:14 6.3 °C -1.8 °C 1026 hPa Calm     56% 0 mm meteobridge W/m2
21:19 6.2 °C -1.7 °C 1026 hPa Calm     57% 0 mm meteobridge W/m2
21:24 6.2 °C -2.2 °C 1026 hPa Calm     55% 0 mm meteobridge W/m2
21:29 6.2 °C -2.4 °C 1026 hPa Calm     54% 0 mm meteobridge W/m2
21:34 6.1 °C -2.3 °C 1026 hPa Calm     55% 0 mm meteobridge W/m2
21:39 6.1 °C -2 °C 1026 hPa Calm     56% 0 mm meteobridge W/m2
21:44 6.1 °C -2 °C 1026.3 hPa Calm     56% 0 mm meteobridge W/m2
21:49 6.1 °C -2.3 °C 1026.3 hPa Calm     55% 0 mm meteobridge W/m2
21:54 6.1 °C -2.5 °C 1026.6 hPa Calm     54% 0 mm meteobridge W/m2
21:59 6.1 °C -2 °C 1026.3 hPa Calm     56% 0 mm meteobridge W/m2
22:04 6.1 °C -1.1 °C 1026.3 hPa Calm     60% 0 mm meteobridge W/m2
22:09 6.1 °C -1.1 °C 1026 hPa Calm     60% 0 mm meteobridge W/m2
22:14 6 °C -1.4 °C 1026 hPa Calm     59% 0 mm meteobridge W/m2
22:19 5.9 °C -1.7 °C 1026 hPa Calm     58% 0 mm meteobridge W/m2
22:24 5.9 °C -0.8 °C 1026.3 hPa Calm   1.6 km/h 62% 0 mm meteobridge W/m2
22:29 5.9 °C -1.7 °C 1026 hPa Calm     58% 0 mm meteobridge W/m2
22:34 6 °C -1.4 °C 1026 hPa Calm     59% 0 mm meteobridge W/m2
22:39 5.9 °C -2.5 °C 1026 hPa Calm     55% 0 mm meteobridge W/m2
22:44 5.9 °C -2 °C 1026 hPa Calm     57% 0 mm meteobridge W/m2
22:49 5.9 °C -1.5 °C 1026 hPa Calm     59% 0 mm meteobridge W/m2
22:54 6 °C -1.4 °C 1025.6 hPa Calm     59% 0 mm meteobridge W/m2
22:59 6 °C -1.2 °C 1026 hPa Calm     60% 0 mm meteobridge W/m2
23:04 6 °C -1.2 °C 1025.6 hPa Calm     60% 0 mm meteobridge W/m2
23:09 6 °C -1 °C 1025.6 hPa Calm     61% 0 mm meteobridge W/m2
23:14 6 °C -1.6 °C 1025.6 hPa Calm     58% 0 mm meteobridge W/m2
23:19 5.9 °C -1.3 °C 1026 hPa Calm     60% 0 mm meteobridge W/m2
23:24 6 °C -1.2 °C 1026 hPa Calm     60% 0 mm meteobridge W/m2
23:29 6 °C -1.6 °C 1026 hPa Calm     58% 0 mm meteobridge W/m2
23:34 6 °C -1.2 °C 1026 hPa Calm     60% 0 mm meteobridge W/m2
23:39 6.1 °C -0.6 °C 1026 hPa Calm     62% 0 mm meteobridge W/m2
23:44 6.1 °C -1.5 °C 1026 hPa Calm     58% 0 mm meteobridge W/m2
23:49 6.1 °C -0.6 °C 1025.6 hPa Calm     62% 0 mm meteobridge W/m2
23:54 6.1 °C -0.6 °C 1025.6 hPa Calm     62% 0 mm meteobridge W/m2
23:59 6.1 °C -1.1 °C 1025.6 hPa Calm     60% 0 mm meteobridge W/m2
EllijayWeather
Compliments of Weather Underground - 2.5 mb